UAAH 211000Z 22005MPS 180V250 CAVOK 33/01 Q1002 NOSIG RMK QFE715/0953
QNH:(hPa/inHg/mmHg)1002 / 29.59 / 752
QFE:(hPa/inHg/mmHg)948 / 28.01 / 711
Temperature33
Dew Point1
Visibility> 10000
WeatherCAVOK
Cloud Cover
Transition Altitude10000 ft.
Transition LevelFL120
SQUAWK